Time;durP1;ratioP1;P1;durP2;ratioP2;P2;SDS_P1;SDS_P2;PMS_P1;PMS_P2;Temp;Humidity;BMP_temperature;BMP_pressure;BME280_temperature;BME280_humidity;BME280_pressure;Samples;Min_cycle;Max_cycle;Signal;HPM_P1;HPM_P2
2022/05/02 00:00:38;;;;;;;2.95;2.58;;;18.10;54.10;;;;;;4951118;28;95032;-63
2022/05/02 00:03:04;;;;;;;3.13;2.70;;;18.00;53.90;;;;;;4951119;28;94001;-63
2022/05/02 00:05:29;;;;;;;2.42;2.22;;;18.10;54.00;;;;;;4951561;28;92619;-63
2022/05/02 00:07:55;;;;;;;3.60;2.90;;;18.10;54.00;;;;;;4952260;28;92320;-63
2022/05/02 00:10:20;;;;;;;3.00;2.70;;;18.10;54.00;;;;;;4951087;28;106978;-63
2022/05/02 00:12:46;;;;;;;2.90;2.63;;;18.00;53.90;;;;;;4950398;28;92667;-63
2022/05/02 00:15:12;;;;;;;2.70;2.50;;;18.00;53.90;;;;;;4950994;28;95017;-63
2022/05/02 00:17:56;;;;;;;3.65;2.47;;;18.00;53.90;;;;;;4951874;28;92854;-63
2022/05/02 00:20:26;;;;;;;2.97;2.67;;;18.00;53.90;;;;;;4951565;28;93210;-63
2022/05/02 00:22:52;;;;;;;2.47;2.17;;;18.00;53.90;;;;;;4951853;28;93110;-63
2022/05/02 00:25:18;;;;;;;2.70;2.50;;;18.00;53.80;;;;;;4952713;28;93212;-63
2022/05/02 00:27:43;;;;;;;2.60;2.40;;;18.00;53.80;;;;;;4951370;28;92497;-63
2022/05/02 00:30:11;;;;;;;2.67;2.47;;;18.00;53.80;;;;;;4951757;28;93146;-63
2022/05/02 00:32:39;;;;;;;2.60;2.40;;;18.00;53.80;;;;;;4951857;28;93933;-63
2022/05/02 00:35:06;;;;;;;2.90;2.60;;;18.00;53.70;;;;;;4951517;28;92776;-63
2022/05/02 00:37:31;;;;;;;3.13;2.83;;;17.90;53.60;;;;;;4951355;28;92768;-63
2022/05/02 00:39:57;;;;;;;2.60;2.40;;;18.00;53.60;;;;;;4933545;28;105927;-64
2022/05/02 00:42:22;;;;;;;3.47;2.72;;;18.00;53.60;;;;;;4951578;28;95098;-63
2022/05/02 00:44:48;;;;;;;2.90;2.58;;;18.00;53.60;;;;;;4952261;28;92531;-63
2022/05/02 00:47:20;;;;;;;4.18;2.60;;;17.90;53.60;;;;;;4950966;28;92898;-63
2022/05/02 00:49:48;;;;;;;2.60;2.40;;;17.90;53.50;;;;;;4951985;28;94063;-64
2022/05/02 00:52:13;;;;;;;3.95;2.88;;;17.90;53.60;;;;;;4951447;28;94295;-64
2022/05/02 00:54:40;;;;;;;2.90;2.60;;;17.90;53.60;;;;;;4952199;28;92895;-63
2022/05/02 00:57:07;;;;;;;2.58;2.38;;;17.90;53.50;;;;;;4951741;28;92227;-63
2022/05/02 00:59:35;;;;;;;2.55;2.35;;;17.90;53.50;;;;;;4951573;28;94343;-63
2022/05/02 01:02:05;;;;;;;3.28;2.95;;;17.90;54.40;;;;;;4952198;28;92669;-63
2022/05/02 01:04:31;;;;;;;2.50;2.30;;;17.90;53.50;;;;;;4951540;28;95342;-63
2022/05/02 01:07:10;;;;;;;2.97;2.67;;;17.90;53.40;;;;;;4951768;28;92574;-63
2022/05/02 01:09:44;;;;;;;2.88;2.60;;;17.90;53.40;;;;;;4952358;28;94513;-63
2022/05/02 01:12:16;;;;;;;3.17;2.83;;;17.90;53.30;;;;;;4951915;28;93842;-63
2022/05/02 01:14:43;;;;;;;2.75;2.45;;;17.90;53.40;;;;;;4952445;28;92669;-63
2022/05/02 01:17:10;;;;;;;2.83;2.63;;;17.90;53.40;;;;;;4951409;28;92490;-63
2022/05/02 01:19:36;;;;;;;2.50;2.30;;;17.80;53.30;;;;;;4951197;28;94746;-63
2022/05/02 01:22:04;;;;;;;3.05;2.40;;;17.80;53.30;;;;;;4951828;28;94170;-63
2022/05/02 01:24:37;;;;;;;3.20;2.47;;;17.90;53.30;;;;;;4952343;28;92676;-64
2022/05/02 01:27:03;;;;;;;2.30;2.10;;;17.80;53.20;;;;;;4951703;28;92424;-63
2022/05/02 01:29:34;;;;;;;3.05;2.75;;;17.80;53.30;;;;;;4950591;28;98115;-63
2022/05/02 01:32:01;;;;;;;2.80;2.30;;;17.80;53.20;;;;;;4950631;28;96355;-63
2022/05/02 01:34:27;;;;;;;3.05;2.63;;;17.80;53.30;;;;;;4951390;28;92964;-63
2022/05/02 01:36:53;;;;;;;2.80;2.50;;;17.80;53.30;;;;;;4951194;28;92910;-63
2022/05/02 01:39:18;;;;;;;3.03;2.53;;;17.80;53.30;;;;;;4951162;28;93178;-63
2022/05/02 01:41:44;;;;;;;2.90;2.60;;;17.80;53.30;;;;;;4950486;28;93914;-63
2022/05/02 01:44:10;;;;;;;2.75;2.35;;;17.80;53.30;;;;;;4951532;28;93119;-63
2022/05/02 01:46:36;;;;;;;3.67;2.53;;;17.80;53.20;;;;;;4950855;28;92306;-63
2022/05/02 01:49:02;;;;;;;2.25;2.05;;;17.80;53.30;;;;;;4950498;28;94928;-64
2022/05/02 01:51:27;;;;;;;3.03;2.42;;;17.80;53.20;;;;;;4951618;28;93849;-63
2022/05/02 01:53:53;;;;;;;2.40;2.20;;;17.80;53.30;;;;;;4949696;28;100152;-63
2022/05/02 01:56:19;;;;;;;3.47;2.72;;;17.70;53.20;;;;;;4950112;28;95105;-63
2022/05/02 01:58:44;;;;;;;2.40;2.20;;;17.70;53.20;;;;;;4951038;28;94063;-63
2022/05/02 02:01:10;;;;;;;3.08;2.63;;;17.70;53.10;;;;;;4949452;28;102462;-63
2022/05/02 02:03:35;;;;;;;2.50;2.30;;;17.80;53.10;;;;;;4951366;28;92618;-64
2022/05/02 02:06:01;;;;;;;2.30;2.10;;;17.80;53.10;;;;;;4950668;28;92873;-63
2022/05/02 02:08:31;;;;;;;2.95;2.75;;;17.80;53.10;;;;;;4951256;28;94500;-63
2022/05/02 02:11:06;;;;;;;2.20;2.10;;;17.80;53.10;;;;;;4951145;28;93865;-64
2022/05/02 02:13:33;;;;;;;2.58;2.30;;;17.70;53.10;;;;;;4950416;28;93087;-63
2022/05/02 02:16:00;;;;;;;2.88;2.58;;;17.70;53.10;;;;;;4949859;28;95410;-64
2022/05/02 02:18:27;;;;;;;2.78;2.40;;;17.70;53.10;;;;;;4948579;28;96504;-64
2022/05/02 02:20:54;;;;;;;2.63;2.42;;;17.70;53.10;;;;;;4948669;28;95358;-63
2022/05/02 02:23:21;;;;;;;3.55;2.72;;;17.70;53.10;;;;;;4949048;28;92907;-63
2022/05/02 02:25:47;;;;;;;3.20;2.70;;;17.70;53.00;;;;;;4950492;28;92661;-63
2022/05/02 02:28:14;;;;;;;4.47;2.80;;;17.70;53.00;;;;;;4949944;28;93987;-64
2022/05/02 02:30:40;;;;;;;2.80;2.47;;;17.70;53.00;;;;;;4949399;28;94236;-63
2022/05/02 02:33:05;;;;;;;2.55;2.35;;;17.70;53.00;;;;;;4949323;28;92579;-65
2022/05/02 02:35:32;;;;;;;2.55;2.35;;;17.60;52.90;;;;;;4950206;28;93308;-64
2022/05/02 02:37:58;;;;;;;2.80;2.60;;;17.70;53.00;;;;;;4948860;28;94269;-63
2022/05/02 02:40:23;;;;;;;3.40;2.50;;;17.60;52.90;;;;;;4949057;28;103851;-63
2022/05/02 02:42:49;;;;;;;2.80;2.60;;;17.70;53.00;;;;;;4947611;28;94967;-64
2022/05/02 02:45:15;;;;;;;2.83;2.40;;;17.70;53.00;;;;;;4950159;28;92942;-63
2022/05/02 02:47:43;;;;;;;3.10;2.80;;;17.70;52.90;;;;;;4948832;28;93205;-63
2022/05/02 02:50:09;;;;;;;3.13;2.50;;;17.60;52.80;;;;;;4949853;28;93927;-63
2022/05/02 02:52:35;;;;;;;3.20;2.72;;;17.60;52.80;;;;;;4950685;28;93004;-63
2022/05/02 02:55:03;;;;;;;2.40;2.20;;;17.60;52.80;;;;;;4949654;28;94257;-63
2022/05/02 02:57:28;;;;;;;2.75;2.55;;;17.60;52.80;;;;;;4950544;28;93204;-63
2022/05/02 02:59:55;;;;;;;2.72;2.53;;;17.60;52.90;;;;;;4949597;28;93923;-63
2022/05/02 03:02:21;;;;;;;3.35;2.65;;;17.60;52.80;;;;;;4950180;28;95249;-63
2022/05/02 03:07:31;;;;;;;2.88;2.67;;;17.60;52.80;;;;;;4947898;28;95210;-63
2022/05/02 03:09:57;;;;;;;2.95;2.72;;;17.60;52.80;;;;;;4948920;28;96219;-63
2022/05/02 03:12:23;;;;;;;3.03;2.83;;;17.60;52.70;;;;;;4949789;28;93048;-63
2022/05/02 03:14:49;;;;;;;3.10;2.80;;;17.60;52.70;;;;;;4949091;28;92540;-63
2022/05/02 04:20:20;;;;;;;3.50;2.97;;;17.40;52.50;;;;;;4278466;22;93060;-62
2022/05/02 04:22:46;;;;;;;3.40;3.10;;;17.30;52.50;;;;;;4934192;28;93185;-62
2022/05/02 04:25:13;;;;;;;3.30;2.83;;;17.30;52.50;;;;;;4951693;28;102716;-62
2022/05/02 04:27:38;;;;;;;3.60;3.30;;;17.40;52.50;;;;;;4950691;28;96415;-62
2022/05/02 04:30:04;;;;;;;3.22;2.92;;;17.40;52.50;;;;;;4952244;28;92542;-62
2022/05/02 04:32:30;;;;;;;3.22;2.90;;;17.30;52.40;;;;;;4951390;28;94201;-62
2022/05/02 04:34:58;;;;;;;3.00;2.70;;;17.30;52.40;;;;;;4952032;28;92732;-62
2022/05/02 04:37:24;;;;;;;3.38;3.08;;;17.30;52.40;;;;;;4951705;28;92956;-62
2022/05/02 04:39:50;;;;;;;3.45;3.15;;;17.30;52.30;;;;;;4952317;28;92560;-62
2022/05/02 04:42:16;;;;;;;4.43;3.08;;;17.40;52.30;;;;;;4951182;28;94124;-62
2022/05/02 04:44:41;;;;;;;3.58;3.00;;;17.30;52.30;;;;;;4951762;28;92796;-62
2022/05/02 04:47:07;;;;;;;3.33;3.03;;;17.30;52.30;;;;;;4951384;28;96039;-62
2022/05/02 04:49:33;;;;;;;3.22;2.92;;;17.40;52.30;;;;;;4952464;28;92703;-62
2022/05/02 04:51:58;;;;;;;3.20;2.75;;;17.30;52.20;;;;;;4950392;28;96465;-62
2022/05/02 04:54:24;;;;;;;3.70;3.40;;;17.40;52.30;;;;;;4951270;28;96202;-62
2022/05/02 04:56:50;;;;;;;3.00;2.80;;;17.30;52.20;;;;;;4951575;28;93037;-62
2022/05/02 04:59:15;;;;;;;3.60;3.30;;;17.30;52.30;;;;;;4951195;28;92672;-63
2022/05/02 05:01:41;;;;;;;3.88;3.55;;;17.30;52.20;;;;;;4950998;28;93387;-62
2022/05/02 05:04:07;;;;;;;3.50;3.20;;;17.30;52.20;;;;;;4952022;28;92957;-62
2022/05/02 05:06:33;;;;;;;3.72;3.38;;;17.30;52.20;;;;;;4951857;28;92511;-62
2022/05/02 05:08:58;;;;;;;3.72;3.42;;;17.30;52.20;;;;;;4952564;28;91778;-62
2022/05/02 05:11:41;;;;;;;5.78;3.33;;;17.30;52.30;;;;;;4951609;28;100370;-62
2022/05/02 05:17:36;;;;;;;5.75;2.92;;;17.30;52.30;;;;;;4949711;28;95373;-62
2022/05/02 05:20:37;;;;;;;3.72;3.40;;;17.30;52.50;;;;;;4931093;28;92605;-62
2022/05/02 05:23:18;;;;;;;3.72;3.22;;;17.30;52.70;;;;;;4888255;28;94358;-62
2022/05/02 05:26:07;;;;;;;3.42;3.13;;;17.30;52.80;;;;;;4932004;28;93208;-63
2022/05/02 05:28:56;;;;;;;4.28;3.40;;;17.30;52.70;;;;;;4931369;28;92977;-63
2022/05/02 05:31:51;;;;;;;3.70;3.40;;;17.30;52.70;;;;;;4931848;28;92517;-63
2022/05/02 05:34:29;;;;;;;4.55;3.28;;;17.30;52.50;;;;;;4931187;28;93203;-62
2022/05/02 05:37:15;;;;;;;6.03;3.85;;;17.40;52.70;;;;;;4931331;28;93959;-63
2022/05/02 05:39:44;;;;;;;3.70;3.40;;;17.40;52.90;;;;;;4930694;28;92921;-63
2022/05/02 05:42:28;;;;;;;4.55;3.70;;;17.40;52.80;;;;;;4931800;28;92641;-63
2022/05/02 05:45:14;;;;;;;4.78;3.90;;;17.50;52.80;;;;;;4930174;28;95421;-63
2022/05/02 05:48:05;;;;;;;4.07;3.65;;;17.50;52.90;;;;;;4931673;28;96559;-63
2022/05/02 05:50:34;;;;;;;5.30;3.80;;;17.50;52.90;;;;;;4931053;28;92772;-63
2022/05/02 05:53:05;;;;;;;3.83;3.42;;;17.50;52.80;;;;;;4931643;28;92838;-63
2022/05/02 05:55:53;;;;;;;3.95;3.53;;;17.50;52.90;;;;;;4930145;28;93976;-63
2022/05/02 05:58:45;;;;;;;4.55;4.03;;;17.50;52.80;;;;;;4930823;28;94177;-63
2022/05/02 06:01:14;;;;;;;6.07;3.90;;;17.60;53.10;;;;;;4931303;28;92724;-63
2022/05/02 06:04:04;;;;;;;4.40;4.00;;;17.50;53.30;;;;;;4931182;28;92092;-63
2022/05/02 06:06:30;;;;;;;6.78;4.28;;;17.60;53.50;;;;;;4918527;28;94155;-63
2022/05/02 06:08:59;;;;;;;4.22;3.90;;;17.60;53.90;;;;;;4930386;28;94330;-63
2022/05/02 06:11:29;;;;;;;3.78;3.47;;;17.70;53.60;;;;;;4930199;28;95437;-63
2022/05/02 06:13:59;;;;;;;3.92;3.63;;;17.70;53.80;;;;;;4930368;28;94325;-63
2022/05/02 06:19:15;;;;;;;5.32;3.67;;;17.90;53.80;;;;;;4929344;28;92886;-63
2022/05/02 06:21:44;;;;;;;15.00;4.15;;;17.90;53.60;;;;;;4929842;28;92620;-64
2022/05/02 06:24:11;;;;;;;5.03;3.72;;;18.00;54.10;;;;;;4930561;28;94560;-63
2022/05/02 06:26:38;;;;;;;3.70;3.40;;;18.00;53.90;;;;;;4930234;28;94242;-63
2022/05/02 06:29:08;;;;;;;4.82;3.60;;;18.10;53.70;;;;;;4930927;28;94037;-64
2022/05/02 06:31:45;;;;;;;5.13;3.47;;;18.20;53.40;;;;;;4930638;28;92477;-63
2022/05/02 06:34:13;;;;;;;5.57;3.88;;;18.20;53.50;;;;;;4929946;28;92970;-64
2022/05/02 06:37:22;;;;;;;5.28;4.28;;;18.20;53.60;;;;;;4928810;28;97027;-64
2022/05/02 06:40:26;;;;;;;3.85;3.45;;;18.30;54.10;;;;;;4930586;28;95290;-64
2022/05/02 06:43:29;;;;;;;6.22;3.80;;;18.40;53.80;;;;;;4930136;28;92887;-62
2022/05/02 06:46:15;;;;;;;4.72;3.65;;;18.50;53.90;;;;;;4930615;28;92578;-64
2022/05/02 06:48:50;;;;;;;3.58;3.28;;;18.50;54.00;;;;;;4929499;28;94271;-63
2022/05/02 06:51:21;;;;;;;5.15;3.25;;;18.60;53.60;;;;;;4929572;28;93449;-64
2022/05/02 06:53:56;;;;;;;4.80;3.58;;;18.60;53.50;;;;;;4934080;28;92741;-63
2022/05/02 06:56:40;;;;;;;3.50;3.20;;;18.60;53.40;;;;;;4934217;28;92126;-64
2022/05/02 06:59:07;;;;;;;3.92;3.30;;;18.70;53.50;;;;;;4934079;28;94214;-63
2022/05/02 07:01:47;;;;;;;5.30;3.35;;;18.70;53.90;;;;;;4933215;28;93912;-63
2022/05/02 07:04:25;;;;;;;4.00;3.20;;;18.70;54.40;;;;;;4932125;28;95360;-63
2022/05/02 07:07:15;;;;;;;5.13;3.38;;;18.80;54.00;;;;;;4933148;28;92501;-63
2022/05/02 07:09:52;;;;;;;3.75;3.40;;;18.80;54.20;;;;;;4932115;28;94476;-64
2022/05/02 07:12:25;;;;;;;5.30;3.35;;;18.80;54.40;;;;;;4933463;28;94058;-65
2022/05/02 07:15:06;;;;;;;3.28;3.00;;;18.80;54.40;;;;;;4933603;28;92840;-65
2022/05/02 07:17:47;;;;;;;6.88;3.55;;;18.80;54.20;;;;;;4934090;28;92794;-64
2022/05/02 07:20:28;;;;;;;4.68;3.50;;;18.80;54.40;;;;;;4932902;28;94248;-64
2022/05/02 07:22:53;;;;;;;4.05;3.30;;;18.80;54.00;;;;;;4933238;28;94531;-64
2022/05/02 07:25:24;;;;;;;4.40;3.55;;;18.80;54.40;;;;;;4933188;28;92544;-65
2022/05/02 07:28:08;;;;;;;8.35;3.45;;;18.80;54.70;;;;;;4932864;28;92596;-64
2022/05/02 07:30:34;;;;;;;6.65;3.35;;;18.80;54.80;;;;;;4932798;28;96576;-64
2022/05/02 07:33:03;;;;;;;6.85;3.40;;;18.80;54.20;;;;;;4932919;28;96374;-64
2022/05/02 07:35:30;;;;;;;4.70;3.47;;;18.80;54.10;;;;;;4933868;28;92729;-64
2022/05/02 07:37:58;;;;;;;5.00;3.30;;;18.80;54.10;;;;;;4933365;28;93185;-64
2022/05/02 07:40:25;;;;;;;5.88;3.20;;;18.70;54.10;;;;;;4932423;28;94088;-64
2022/05/02 07:42:54;;;;;;;8.38;3.50;;;18.70;54.20;;;;;;4931969;28;93958;-64
2022/05/02 07:45:27;;;;;;;8.48;3.10;;;18.70;54.20;;;;;;4933017;28;92738;-64
2022/05/02 07:47:54;;;;;;;12.77;3.50;;;18.70;54.30;;;;;;4933316;28;92361;-65
2022/05/02 07:50:25;;;;;;;15.02;3.60;;;18.60;54.30;;;;;;4932378;28;93374;-65
2022/05/02 07:52:52;;;;;;;7.28;3.47;;;18.60;54.50;;;;;;4932315;28;93887;-65
2022/05/02 07:55:22;;;;;;;13.65;3.83;;;18.60;54.60;;;;;;4932443;28;94906;-64
2022/05/02 07:57:48;;;;;;;9.43;4.10;;;18.60;54.70;;;;;;4933679;28;92535;-65
2022/05/02 08:00:16;;;;;;;13.10;4.28;;;18.50;55.30;;;;;;4933155;28;94171;-64
2022/05/02 08:02:42;;;;;;;6.53;3.97;;;18.60;56.10;;;;;;4932153;28;94643;-65
2022/05/02 08:05:09;;;;;;;9.98;3.85;;;18.60;56.60;;;;;;4931615;28;92814;-65
2022/05/02 08:07:42;;;;;;;9.60;4.25;;;18.60;56.70;;;;;;4931644;28;92963;-65
2022/05/02 08:10:45;;;;;;;7.88;3.75;;;18.60;57.00;;;;;;4931395;28;94397;-65
2022/05/02 08:13:38;;;;;;;6.57;3.67;;;18.60;57.00;;;;;;4932669;28;94310;-66
2022/05/02 08:16:07;;;;;;;11.13;4.10;;;18.60;57.30;;;;;;4932501;28;92575;-65
2022/05/02 08:19:10;;;;;;;9.95;4.38;;;18.50;57.40;;;;;;4930845;28;92630;-65
2022/05/02 08:27:15;;;;;;;9.82;3.90;;;18.60;57.60;;;;;;4930021;28;96758;-65
2022/05/02 08:28:06;;;;;;;6.78;3.83;;;18.50;57.60;;;;;;4860084;28;92695;-65
2022/05/02 08:30:38;;;;;;;8.18;3.55;;;18.50;57.80;;;;;;4931993;28;93177;-65
2022/05/02 08:33:07;;;;;;;7.47;3.90;;;18.50;57.80;;;;;;4932053;28;93091;-65
2022/05/02 08:35:51;;;;;;;8.98;3.95;;;18.50;57.80;;;;;;4930977;28;94444;-65
2022/05/02 08:38:32;;;;;;;9.27;4.05;;;18.50;57.90;;;;;;4931614;28;92487;-65
2022/05/02 08:41:19;;;;;;;8.05;3.90;;;18.50;58.00;;;;;;4933064;28;91741;-65
2022/05/02 08:44:06;;;;;;;9.18;3.65;;;18.50;57.90;;;;;;4931295;28;94506;-65
2022/05/02 08:46:53;;;;;;;8.23;3.70;;;18.40;57.80;;;;;;4931131;28;93857;-65
2022/05/02 08:49:37;;;;;;;6.25;4.55;;;18.40;57.80;;;;;;4930843;28;94897;-65
2022/05/02 08:52:39;;;;;;;11.30;4.50;;;18.40;57.30;;;;;;4931952;28;92485;-64
2022/05/02 08:55:09;;;;;;;7.47;4.82;;;18.40;57.00;;;;;;4931716;28;93196;-64
2022/05/02 08:58:01;;;;;;;9.73;5.68;;;18.40;56.70;;;;;;4931741;28;93864;-64
2022/05/02 09:00:38;;;;;;;10.25;7.00;;;18.40;56.20;;;;;;4931986;28;93552;-64
2022/05/02 09:03:41;;;;;;;9.98;6.97;;;18.20;55.30;;;;;;4932304;28;92996;-64
2022/05/02 09:06:18;;;;;;;16.65;7.03;;;18.30;54.30;;;;;;4931640;28;93102;-64
2022/05/02 09:09:18;;;;;;;11.00;6.53;;;18.20;54.40;;;;;;4931459;28;95320;-64
2022/05/02 09:12:20;;;;;;;12.98;6.72;;;18.20;54.10;;;;;;4931178;28;92592;-64
2022/05/02 09:15:11;;;;;;;8.52;6.47;;;18.20;54.00;;;;;;4931098;28;92811;-65
2022/05/02 09:17:55;;;;;;;8.50;6.10;;;18.20;54.00;;;;;;4930334;28;96416;-64
2022/05/02 09:20:46;;;;;;;9.00;6.82;;;18.20;54.00;;;;;;4929826;28;96557;-64
2022/05/02 09:23:22;;;;;;;8.07;6.10;;;18.20;54.00;;;;;;4930877;28;93304;-64
2022/05/02 09:26:03;;;;;;;12.45;6.95;;;18.10;54.00;;;;;;4931149;28;92604;-64
2022/05/02 09:28:46;;;;;;;8.77;6.20;;;18.20;53.90;;;;;;4931338;28;93162;-64
2022/05/02 09:31:32;;;;;;;8.55;5.80;;;18.20;54.00;;;;;;4931933;28;92804;-64
2022/05/02 09:34:17;;;;;;;9.05;5.95;;;18.10;54.00;;;;;;4930838;28;92568;-64
2022/05/02 09:36:54;;;;;;;7.75;6.00;;;18.10;54.00;;;;;;4931001;28;91775;-64
2022/05/02 09:39:48;;;;;;;10.75;5.90;;;18.10;54.00;;;;;;4930537;28;95574;-64
2022/05/02 09:42:51;;;;;;;12.20;6.88;;;18.10;53.70;;;;;;4931512;28;94233;-64
2022/05/02 09:51:51;;;;;;;8.85;7.38;;;18.10;49.50;;;;;;4930122;28;92815;-64
2022/05/02 09:57:49;;;;;;;10.30;7.15;;;18.00;47.60;;;;;;4930326;28;92593;-65
2022/05/02 10:03:25;;;;;;;8.50;6.50;;;18.00;46.30;;;;;;4930382;28;92914;-65
2022/05/02 10:06:16;;;;;;;9.20;6.70;;;18.00;46.00;;;;;;4930486;28;94226;-65
2022/05/02 10:08:56;;;;;;;9.30;6.65;;;18.00;45.60;;;;;;4931047;28;92790;-65
2022/05/02 10:11:48;;;;;;;8.00;6.10;;;18.00;45.30;;;;;;4930895;28;93138;-74
2022/05/02 10:14:34;;;;;;;12.93;5.67;;;18.00;45.10;;;;;;4918606;28;96752;-65
2022/05/02 10:17:06;;;;;;;14.70;6.28;;;17.90;45.30;;;;;;4930476;28;95291;-66
2022/05/02 10:19:56;;;;;;;12.90;5.77;;;18.00;45.20;;;;;;4930316;28;92779;-65
2022/05/02 10:23:02;;;;;;;10.05;6.82;;;18.00;45.10;;;;;;4931203;28;93061;-65
2022/05/02 10:25:41;;;;;;;11.25;7.07;;;18.00;44.80;;;;;;4931203;28;94443;-65
2022/05/02 10:28:23;;;;;;;7.35;6.50;;;18.00;44.60;;;;;;4933356;28;93447;-65
2022/05/02 10:30:50;;;;;;;9.30;6.17;;;18.10;44.10;;;;;;4933446;28;93060;-65
2022/05/02 10:33:25;;;;;;;12.45;6.63;;;18.00;44.50;;;;;;4934240;28;91904;-64
2022/05/02 10:35:52;;;;;;;8.10;6.68;;;18.10;43.80;;;;;;4932906;28;94382;-65
2022/05/02 10:38:28;;;;;;;9.10;6.60;;;18.00;43.70;;;;;;4933223;28;93850;-65
2022/05/02 10:41:11;;;;;;;8.50;6.18;;;18.10;43.20;;;;;;4933082;28;95251;-63
2022/05/02 10:43:44;;;;;;;8.52;6.55;;;18.10;43.20;;;;;;4933508;28;92593;-63
2022/05/02 10:46:12;;;;;;;7.05;5.97;;;18.10;43.80;;;;;;4933051;28;94256;-63
2022/05/02 10:49:02;;;;;;;8.77;5.82;;;18.10;43.50;;;;;;4932820;28;94817;-64
2022/05/02 10:51:35;;;;;;;7.32;6.15;;;18.10;43.20;;;;;;4923535;28;93107;-64
2022/05/02 10:54:07;;;;;;;9.05;6.88;;;18.10;43.20;;;;;;4933445;28;92979;-64
2022/05/02 10:56:41;;;;;;;9.73;6.82;;;18.10;42.90;;;;;;4934185;28;94207;-64
2022/05/02 10:59:22;;;;;;;13.85;7.10;;;18.10;43.10;;;;;;4933975;28;94498;-64
2022/05/02 11:02:22;;;;;;;13.73;7.45;;;18.10;44.00;;;;;;4934402;28;93090;-64
2022/05/02 11:05:06;;;;;;;9.63;7.32;;;18.10;43.80;;;;;;4933910;28;92438;-64
2022/05/02 11:07:41;;;;;;;10.25;7.20;;;18.10;43.00;;;;;;4931446;28;95207;-64
2022/05/02 11:10:08;;;;;;;10.32;7.15;;;18.10;42.60;;;;;;4933014;28;95348;-64
2022/05/02 11:12:57;;;;;;;9.30;7.30;;;18.10;42.90;;;;;;4932403;28;92708;-64
2022/05/02 11:15:25;;;;;;;9.35;7.25;;;18.10;42.70;;;;;;4893709;28;93276;-74
2022/05/02 11:18:09;;;;;;;10.07;6.43;;;18.10;42.60;;;;;;4932782;28;94182;-63
2022/05/02 11:20:48;;;;;;;8.35;6.45;;;18.10;42.60;;;;;;4932445;28;92920;-64
2022/05/02 11:23:52;;;;;;;12.20;7.32;;;18.10;42.40;;;;;;4933947;28;92541;-67
2022/05/02 11:26:32;;;;;;;11.82;6.53;;;18.10;42.00;;;;;;4933728;28;92028;-64
2022/05/02 11:29:31;;;;;;;12.73;8.02;;;18.10;42.40;;;;;;4932405;28;94205;-64
2022/05/02 11:32:21;;;;;;;8.05;7.25;;;18.10;42.30;;;;;;4932287;28;93150;-64
2022/05/02 11:35:05;;;;;;;12.45;7.20;;;18.10;42.40;;;;;;4931285;28;96689;-63
2022/05/02 11:37:50;;;;;;;14.57;7.20;;;18.10;42.40;;;;;;4933758;28;92878;-63
2022/05/02 11:40:17;;;;;;;12.15;6.88;;;18.10;41.40;;;;;;4932830;28;94048;-64
2022/05/02 11:42:46;;;;;;;11.57;6.88;;;18.00;41.40;;;;;;4933982;28;92916;-64
2022/05/02 11:45:14;;;;;;;14.30;6.35;;;18.00;41.20;;;;;;4933773;28;93017;-64
2022/05/02 11:47:54;;;;;;;8.98;6.25;;;18.00;41.00;;;;;;4933729;28;92856;-63
2022/05/02 11:50:25;;;;;;;10.13;5.80;;;18.10;40.90;;;;;;4932948;28;94531;-64
2022/05/02 11:53:01;;;;;;;12.70;5.90;;;18.10;41.00;;;;;;4932712;28;93773;-63
2022/05/02 11:55:33;;;;;;;8.95;5.47;;;18.10;41.30;;;;;;4932461;28;93003;-64
2022/05/02 11:58:23;;;;;;;12.20;5.07;;;18.10;41.40;;;;;;4932806;28;92569;-63
2022/05/02 12:00:52;;;;;;;10.02;5.65;;;18.10;41.50;;;;;;4931392;28;95461;-64
2022/05/02 12:03:24;;;;;;;10.13;5.55;;;18.10;41.50;;;;;;4932006;28;95347;-64
2022/05/02 12:06:01;;;;;;;7.28;5.22;;;18.10;41.40;;;;;;4932584;28;93147;-65
2022/05/02 12:08:37;;;;;;;11.23;5.32;;;18.20;41.60;;;;;;4932065;28;92481;-65
2022/05/02 12:11:11;;;;;;;15.27;5.25;;;18.20;41.60;;;;;;4932300;28;94392;-64
2022/05/02 12:13:44;;;;;;;10.02;5.00;;;18.20;42.00;;;;;;4931967;28;93906;-65
2022/05/02 12:16:14;;;;;;;9.80;5.28;;;18.20;42.30;;;;;;4932685;28;93376;-65
2022/05/02 12:18:46;;;;;;;9.38;4.82;;;18.20;42.50;;;;;;4932095;28;92425;-65
2022/05/02 12:21:35;;;;;;;8.40;4.90;;;18.20;42.60;;;;;;4932461;28;94272;-65
2022/05/02 12:24:03;;;;;;;12.57;5.28;;;18.20;42.60;;;;;;4931721;28;93861;-65
2022/05/02 12:26:31;;;;;;;13.70;6.03;;;18.30;42.70;;;;;;4931809;28;94958;-64
2022/05/02 12:29:03;;;;;;;16.70;6.03;;;18.30;42.70;;;;;;4932005;28;92765;-64
2022/05/02 12:31:32;;;;;;;34.47;7.20;;;18.30;42.70;;;;;;4932826;28;95029;-64
2022/05/02 12:34:00;;;;;;;12.70;6.63;;;18.20;42.60;;;;;;4931770;28;93940;-64
2022/05/02 12:36:47;;;;;;;14.32;7.47;;;18.20;42.50;;;;;;4932159;28;93090;-64
2022/05/02 12:39:23;;;;;;;14.82;7.13;;;18.30;42.00;;;;;;4918984;28;93292;-63
2022/05/02 12:41:53;;;;;;;16.10;7.97;;;18.20;42.10;;;;;;4931575;28;93623;-64
2022/05/02 12:44:25;;;;;;;12.50;6.60;;;18.20;42.10;;;;;;4931581;28;92941;-64
2022/05/02 12:46:53;;;;;;;10.68;6.95;;;18.20;42.00;;;;;;4930941;28;92997;-64
2022/05/02 12:49:37;;;;;;;8.38;7.43;;;18.20;42.20;;;;;;4931653;28;93141;-64
2022/05/02 12:52:04;;;;;;;10.43;7.07;;;18.10;42.20;;;;;;4930748;28;95529;-64
2022/05/02 12:54:33;;;;;;;8.32;6.60;;;18.10;42.30;;;;;;4931378;28;96820;-64
2022/05/02 13:02:38;;;;;;;9.40;6.72;;;18.10;42.20;;;;;;4931228;28;93170;-63
2022/05/02 13:05:15;;;;;;;11.80;6.65;;;18.10;42.50;;;;;;4931615;28;93795;-71
2022/05/02 13:07:46;;;;;;;36.58;8.93;;;18.10;42.40;;;;;;4931868;28;92462;-71
2022/05/02 13:10:18;;;;;;;15.35;7.68;;;18.10;42.40;;;;;;4931983;28;92048;-66
2022/05/02 13:13:09;;;;;;;13.32;7.35;;;18.10;42.40;;;;;;4931487;28;94881;-64
2022/05/02 13:15:36;;;;;;;11.70;6.47;;;18.10;42.80;;;;;;4930775;28;93962;-63
2022/05/02 13:18:05;;;;;;;9.95;7.38;;;18.10;43.00;;;;;;4929888;28;95562;-63
2022/05/02 13:20:31;;;;;;;10.10;6.85;;;18.10;42.40;;;;;;4931271;28;92962;-63
2022/05/02 13:23:03;;;;;;;8.70;6.25;;;18.10;42.10;;;;;;4931946;28;95074;-65
2022/05/02 13:25:56;;;;;;;13.45;6.30;;;18.10;42.30;;;;;;4931291;28;93934;-63
2022/05/02 13:28:24;;;;;;;11.45;6.18;;;18.10;42.30;;;;;;4931074;28;92948;-65
2022/05/02 13:30:57;;;;;;;9.65;6.25;;;18.10;42.70;;;;;;4930771;28;93342;-63
2022/05/02 13:33:38;;;;;;;;;;;18.10;42.90;;;;;;4931812;28;93257;-65
2022/05/02 13:36:06;;;;;;;9.45;5.40;;;18.10;43.30;;;;;;4932663;28;93674;-63
2022/05/02 13:38:49;;;;;;;12.57;5.57;;;18.20;43.50;;;;;;4931484;28;93124;-63
2022/05/02 13:41:35;;;;;;;16.40;5.13;;;18.20;43.90;;;;;;4932021;28;92806;-64
2022/05/02 13:44:40;;;;;;;42.63;7.13;;;18.20;44.30;;;;;;4929628;28;95586;-63
2022/05/02 13:47:10;;;;;;;19.00;5.63;;;18.30;44.50;;;;;;4892306;28;95403;-69
2022/05/02 13:49:57;;;;;;;34.67;5.75;;;18.30;44.80;;;;;;4931288;28;92517;-63
2022/05/02 13:52:51;;;;;;;20.45;5.07;;;18.30;45.10;;;;;;4931522;28;92675;-63
2022/05/02 13:55:31;;;;;;;14.45;4.30;;;18.40;45.20;;;;;;4931226;28;94542;-64
2022/05/02 13:58:29;;;;;;;10.20;4.57;;;18.30;46.20;;;;;;4930409;28;93889;-63
2022/05/02 14:01:39;;;;;;;11.10;4.38;;;18.40;45.30;;;;;;4877521;28;93202;-63
2022/05/02 14:04:23;;;;;;;11.55;3.85;;;18.40;45.50;;;;;;4931636;28;92301;-63
2022/05/02 14:09:44;;;;;;;11.00;4.53;;;18.30;45.70;;;;;;4929631;28;92917;-63
2022/05/02 14:12:28;;;;;;;10.65;3.70;;;18.30;45.80;;;;;;4929662;28;95025;-63
2022/05/02 14:15:09;;;;;;;9.88;3.60;;;18.30;45.80;;;;;;4931551;28;92617;-64
2022/05/02 14:18:05;;;;;;;11.07;3.80;;;18.30;45.90;;;;;;4930271;28;94188;-63
2022/05/02 14:20:33;;;;;;;12.60;3.70;;;18.30;46.00;;;;;;4913190;28;94514;-64
2022/05/02 14:23:01;;;;;;;10.55;4.05;;;18.30;46.10;;;;;;4929929;28;92780;-63
2022/05/02 14:25:39;;;;;;;10.23;3.72;;;18.20;46.10;;;;;;4930706;28;93010;-63
2022/05/02 14:28:18;;;;;;;8.35;3.80;;;18.30;46.20;;;;;;4931249;28;93302;-63
2022/05/02 14:31:02;;;;;;;11.70;3.95;;;18.30;46.20;;;;;;4930666;28;95094;-63
2022/05/02 14:33:31;;;;;;;7.53;3.38;;;18.20;46.20;;;;;;4931182;28;92996;-63
2022/05/02 14:35:58;;;;;;;5.60;3.45;;;18.20;46.30;;;;;;4930204;28;92765;-64
2022/05/02 14:38:28;;;;;;;5.50;3.20;;;18.30;46.40;;;;;;4929672;28;97160;-63
2022/05/02 14:40:55;;;;;;;7.78;3.00;;;18.30;46.40;;;;;;4930390;28;95085;-65
2022/05/02 14:43:21;;;;;;;8.52;3.10;;;18.30;46.50;;;;;;4930380;28;92540;-64
2022/05/02 14:45:48;;;;;;;7.90;3.25;;;18.30;46.60;;;;;;4930319;28;93017;-64
2022/05/02 14:48:15;;;;;;;5.18;2.85;;;18.20;46.60;;;;;;4929576;28;93755;-64
2022/05/02 14:50:48;;;;;;;7.38;2.92;;;18.30;46.80;;;;;;4929290;28;93317;-64
2022/05/02 14:53:16;;;;;;;4.93;3.10;;;18.30;46.80;;;;;;4930162;28;92677;-64
2022/05/02 14:55:49;;;;;;;6.53;3.25;;;18.30;46.80;;;;;;4929763;28;91922;-63
2022/05/02 14:58:20;;;;;;;4.85;2.92;;;18.30;46.90;;;;;;4930221;28;93723;-64
2022/05/02 15:00:51;;;;;;;6.07;3.00;;;18.30;46.90;;;;;;4930069;28;93896;-64